sensor_id;sensor_type;location;lat;lon;timestamp;P1;durP1;ratioP1;P2;durP2;ratioP2
73428;SDS011;61643;49.564;17.412;2023-02-18T00:00:14;8.07;;;4.45;;
73428;SDS011;61643;49.564;17.412;2023-02-18T00:02:43;7.35;;;3.85;;
73428;SDS011;61643;49.564;17.412;2023-02-18T00:05:09;6.63;;;4.00;;
73428;SDS011;61643;49.564;17.412;2023-02-18T00:07:36;5.97;;;3.47;;
73428;SDS011;61643;49.564;17.412;2023-02-18T00:10:04;5.97;;;3.50;;
73428;SDS011;61643;49.564;17.412;2023-02-18T00:12:32;8.65;;;3.35;;
73428;SDS011;61643;49.564;17.412;2023-02-18T00:14:58;8.18;;;4.30;;
73428;SDS011;61643;49.564;17.412;2023-02-18T00:17:24;5.45;;;3.35;;
73428;SDS011;61643;49.564;17.412;2023-02-18T00:19:50;7.95;;;3.80;;
73428;SDS011;61643;49.564;17.412;2023-02-18T00:22:16;6.50;;;3.17;;
73428;SDS011;61643;49.564;17.412;2023-02-18T00:24:42;8.15;;;3.88;;
73428;SDS011;61643;49.564;17.412;2023-02-18T00:27:08;8.52;;;4.00;;
73428;SDS011;61643;49.564;17.412;2023-02-18T00:29:34;5.13;;;2.80;;
73428;SDS011;61643;49.564;17.412;2023-02-18T00:32:00;7.03;;;3.22;;
73428;SDS011;61643;49.564;17.412;2023-02-18T00:34:26;4.78;;;2.80;;
73428;SDS011;61643;49.564;17.412;2023-02-18T00:36:52;6.25;;;2.42;;
73428;SDS011;61643;49.564;17.412;2023-02-18T00:39:18;4.90;;;2.65;;
73428;SDS011;61643;49.564;17.412;2023-02-18T00:41:44;4.55;;;2.60;;
73428;SDS011;61643;49.564;17.412;2023-02-18T00:44:10;3.22;;;2.13;;
73428;SDS011;61643;49.564;17.412;2023-02-18T00:46:37;5.82;;;2.95;;
73428;SDS011;61643;49.564;17.412;2023-02-18T00:49:04;3.63;;;2.38;;
73428;SDS011;61643;49.564;17.412;2023-02-18T00:51:30;4.03;;;2.15;;
73428;SDS011;61643;49.564;17.412;2023-02-18T00:53:56;4.53;;;2.78;;
73428;SDS011;61643;49.564;17.412;2023-02-18T00:56:23;4.80;;;2.60;;
73428;SDS011;61643;49.564;17.412;2023-02-18T00:58:49;3.65;;;2.05;;
73428;SDS011;61643;49.564;17.412;2023-02-18T01:01:16;4.68;;;2.67;;
73428;SDS011;61643;49.564;17.412;2023-02-18T01:03:43;4.82;;;2.67;;
73428;SDS011;61643;49.564;17.412;2023-02-18T01:06:10;3.90;;;2.10;;
73428;SDS011;61643;49.564;17.412;2023-02-18T01:08:37;3.47;;;2.35;;
73428;SDS011;61643;49.564;17.412;2023-02-18T01:11:05;3.50;;;2.30;;
73428;SDS011;61643;49.564;17.412;2023-02-18T01:13:32;3.85;;;2.75;;
73428;SDS011;61643;49.564;17.412;2023-02-18T01:15:58;3.70;;;2.30;;
73428;SDS011;61643;49.564;17.412;2023-02-18T01:18:24;3.70;;;2.20;;
73428;SDS011;61643;49.564;17.412;2023-02-18T01:20:51;4.00;;;2.50;;
73428;SDS011;61643;49.564;17.412;2023-02-18T01:23:18;4.03;;;2.53;;
73428;SDS011;61643;49.564;17.412;2023-02-18T01:25:44;3.15;;;2.30;;
73428;SDS011;61643;49.564;17.412;2023-02-18T01:28:11;5.63;;;2.75;;
73428;SDS011;61643;49.564;17.412;2023-02-18T01:30:38;5.35;;;2.58;;
73428;SDS011;61643;49.564;17.412;2023-02-18T01:33:05;4.15;;;2.22;;
73428;SDS011;61643;49.564;17.412;2023-02-18T01:35:32;4.90;;;2.60;;
73428;SDS011;61643;49.564;17.412;2023-02-18T01:37:58;4.50;;;2.75;;
73428;SDS011;61643;49.564;17.412;2023-02-18T01:40:25;2.88;;;2.22;;
73428;SDS011;61643;49.564;17.412;2023-02-18T01:50:48;5.03;;;3.17;;
73428;SDS011;61643;49.564;17.412;2023-02-18T01:53:20;5.00;;;3.33;;
73428;SDS011;61643;49.564;17.412;2023-02-18T01:55:51;5.57;;;3.15;;
73428;SDS011;61643;49.564;17.412;2023-02-18T01:58:17;4.72;;;3.35;;
73428;SDS011;61643;49.564;17.412;2023-02-18T02:00:44;5.88;;;3.05;;
73428;SDS011;61643;49.564;17.412;2023-02-18T02:03:10;3.78;;;2.60;;
73428;SDS011;61643;49.564;17.412;2023-02-18T02:05:36;4.72;;;3.20;;
73428;SDS011;61643;49.564;17.412;2023-02-18T02:08:02;7.32;;;3.13;;
73428;SDS011;61643;49.564;17.412;2023-02-18T02:10:35;4.80;;;2.92;;
73428;SDS011;61643;49.564;17.412;2023-02-18T02:18:31;3.90;;;2.80;;
73428;SDS011;61643;49.564;17.412;2023-02-18T02:38:01;6.65;;;4.35;;
73428;SDS011;61643;49.564;17.412;2023-02-18T02:41:16;4.90;;;3.40;;
73428;SDS011;61643;49.564;17.412;2023-02-18T02:51:49;5.60;;;3.67;;
73428;SDS011;61643;49.564;17.412;2023-02-18T02:54:21;6.53;;;4.10;;
73428;SDS011;61643;49.564;17.412;2023-02-18T02:56:49;5.60;;;3.78;;
73428;SDS011;61643;49.564;17.412;2023-02-18T02:59:16;6.70;;;4.10;;
73428;SDS011;61643;49.564;17.412;2023-02-18T03:08:17;6.03;;;3.55;;
73428;SDS011;61643;49.564;17.412;2023-02-18T03:11:16;7.10;;;3.70;;
73428;SDS011;61643;49.564;17.412;2023-02-18T03:16:32;5.35;;;3.55;;
73428;SDS011;61643;49.564;17.412;2023-02-18T03:19:11;6.93;;;4.07;;
73428;SDS011;61643;49.564;17.412;2023-02-18T03:24:41;4.75;;;3.67;;
73428;SDS011;61643;49.564;17.412;2023-02-18T03:27:13;6.88;;;4.13;;
73428;SDS011;61643;49.564;17.412;2023-02-18T03:29:44;6.50;;;4.13;;
73428;SDS011;61643;49.564;17.412;2023-02-18T03:32:13;4.80;;;3.65;;
73428;SDS011;61643;49.564;17.412;2023-02-18T03:34:44;6.82;;;4.60;;
73428;SDS011;61643;49.564;17.412;2023-02-18T03:37:15;7.70;;;4.60;;
73428;SDS011;61643;49.564;17.412;2023-02-18T03:39:42;6.15;;;3.80;;
73428;SDS011;61643;49.564;17.412;2023-02-18T03:42:10;6.43;;;4.00;;
73428;SDS011;61643;49.564;17.412;2023-02-18T03:44:36;6.07;;;3.88;;
73428;SDS011;61643;49.564;17.412;2023-02-18T03:47:02;6.97;;;4.10;;
73428;SDS011;61643;49.564;17.412;2023-02-18T03:49:28;6.00;;;4.03;;
73428;SDS011;61643;49.564;17.412;2023-02-18T03:51:54;5.97;;;3.95;;
73428;SDS011;61643;49.564;17.412;2023-02-18T03:54:20;6.63;;;4.32;;
73428;SDS011;61643;49.564;17.412;2023-02-18T03:56:46;6.45;;;3.88;;
73428;SDS011;61643;49.564;17.412;2023-02-18T03:59:12;6.32;;;4.05;;
73428;SDS011;61643;49.564;17.412;2023-02-18T04:01:38;6.50;;;4.28;;
73428;SDS011;61643;49.564;17.412;2023-02-18T04:04:04;7.97;;;4.05;;
73428;SDS011;61643;49.564;17.412;2023-02-18T04:06:30;6.00;;;3.92;;
73428;SDS011;61643;49.564;17.412;2023-02-18T04:08:56;5.22;;;3.90;;
73428;SDS011;61643;49.564;17.412;2023-02-18T04:11:22;7.95;;;4.03;;
73428;SDS011;61643;49.564;17.412;2023-02-18T04:13:48;6.72;;;4.50;;
73428;SDS011;61643;49.564;17.412;2023-02-18T04:16:14;6.40;;;4.25;;
73428;SDS011;61643;49.564;17.412;2023-02-18T04:18:40;7.60;;;4.43;;
73428;SDS011;61643;49.564;17.412;2023-02-18T04:21:06;7.43;;;4.38;;
73428;SDS011;61643;49.564;17.412;2023-02-18T04:23:32;7.22;;;3.90;;
73428;SDS011;61643;49.564;17.412;2023-02-18T04:25:58;7.10;;;4.00;;
73428;SDS011;61643;49.564;17.412;2023-02-18T04:28:24;6.22;;;4.38;;
73428;SDS011;61643;49.564;17.412;2023-02-18T04:30:50;7.93;;;3.95;;
73428;SDS011;61643;49.564;17.412;2023-02-18T04:33:16;6.53;;;4.10;;
73428;SDS011;61643;49.564;17.412;2023-02-18T04:35:42;7.78;;;4.30;;
73428;SDS011;61643;49.564;17.412;2023-02-18T04:38:08;6.40;;;4.40;;
73428;SDS011;61643;49.564;17.412;2023-02-18T04:40:35;6.35;;;4.07;;
73428;SDS011;61643;49.564;17.412;2023-02-18T04:43:01;6.35;;;3.92;;
73428;SDS011;61643;49.564;17.412;2023-02-18T04:45:27;5.50;;;3.28;;
73428;SDS011;61643;49.564;17.412;2023-02-18T04:47:54;5.43;;;3.55;;
73428;SDS011;61643;49.564;17.412;2023-02-18T04:50:20;5.20;;;3.40;;
73428;SDS011;61643;49.564;17.412;2023-02-18T04:52:47;4.93;;;3.45;;
73428;SDS011;61643;49.564;17.412;2023-02-18T04:55:13;5.53;;;3.45;;
73428;SDS011;61643;49.564;17.412;2023-02-18T04:57:39;5.78;;;3.50;;
73428;SDS011;61643;49.564;17.412;2023-02-18T05:00:07;5.88;;;3.90;;
73428;SDS011;61643;49.564;17.412;2023-02-18T05:02:35;6.45;;;3.22;;
73428;SDS011;61643;49.564;17.412;2023-02-18T05:05:01;4.30;;;3.30;;
73428;SDS011;61643;49.564;17.412;2023-02-18T05:07:28;5.68;;;3.25;;
73428;SDS011;61643;49.564;17.412;2023-02-18T05:09:53;4.57;;;2.90;;
73428;SDS011;61643;49.564;17.412;2023-02-18T05:12:19;5.70;;;3.33;;
73428;SDS011;61643;49.564;17.412;2023-02-18T05:14:45;4.97;;;3.20;;
73428;SDS011;61643;49.564;17.412;2023-02-18T05:17:11;6.38;;;2.85;;
73428;SDS011;61643;49.564;17.412;2023-02-18T05:19:38;5.78;;;3.17;;
73428;SDS011;61643;49.564;17.412;2023-02-18T05:22:03;4.55;;;2.92;;
73428;SDS011;61643;49.564;17.412;2023-02-18T05:24:29;4.68;;;2.65;;
73428;SDS011;61643;49.564;17.412;2023-02-18T05:26:55;6.38;;;3.05;;
73428;SDS011;61643;49.564;17.412;2023-02-18T05:29:21;5.82;;;3.03;;
73428;SDS011;61643;49.564;17.412;2023-02-18T05:31:47;5.30;;;3.00;;
73428;SDS011;61643;49.564;17.412;2023-02-18T05:34:13;4.35;;;2.67;;
73428;SDS011;61643;49.564;17.412;2023-02-18T05:36:39;4.25;;;2.53;;
73428;SDS011;61643;49.564;17.412;2023-02-18T05:39:05;5.18;;;2.53;;
73428;SDS011;61643;49.564;17.412;2023-02-18T05:41:31;2.88;;;2.10;;
73428;SDS011;61643;49.564;17.412;2023-02-18T05:43:57;4.30;;;2.50;;
73428;SDS011;61643;49.564;17.412;2023-02-18T05:46:41;4.90;;;2.20;;
73428;SDS011;61643;49.564;17.412;2023-02-18T05:49:07;3.83;;;2.28;;
73428;SDS011;61643;49.564;17.412;2023-02-18T05:51:33;4.55;;;2.40;;
73428;SDS011;61643;49.564;17.412;2023-02-18T05:53:59;4.13;;;2.40;;
73428;SDS011;61643;49.564;17.412;2023-02-18T05:56:25;4.50;;;2.10;;
73428;SDS011;61643;49.564;17.412;2023-02-18T05:58:51;4.97;;;2.78;;
73428;SDS011;61643;49.564;17.412;2023-02-18T06:01:17;5.47;;;2.63;;
73428;SDS011;61643;49.564;17.412;2023-02-18T06:03:43;4.32;;;2.42;;
73428;SDS011;61643;49.564;17.412;2023-02-18T06:06:09;7.85;;;2.50;;
73428;SDS011;61643;49.564;17.412;2023-02-18T06:08:35;4.70;;;1.95;;
73428;SDS011;61643;49.564;17.412;2023-02-18T06:11:01;6.07;;;2.17;;
73428;SDS011;61643;49.564;17.412;2023-02-18T06:13:27;4.25;;;2.03;;
73428;SDS011;61643;49.564;17.412;2023-02-18T06:15:53;3.88;;;2.22;;
73428;SDS011;61643;49.564;17.412;2023-02-18T06:18:20;3.63;;;2.05;;
73428;SDS011;61643;49.564;17.412;2023-02-18T06:20:46;5.10;;;2.40;;
73428;SDS011;61643;49.564;17.412;2023-02-18T06:23:13;4.32;;;2.20;;
73428;SDS011;61643;49.564;17.412;2023-02-18T06:25:40;4.30;;;2.33;;
73428;SDS011;61643;49.564;17.412;2023-02-18T06:28:06;4.47;;;2.58;;
73428;SDS011;61643;49.564;17.412;2023-02-18T06:30:32;3.88;;;2.58;;
73428;SDS011;61643;49.564;17.412;2023-02-18T06:32:58;5.50;;;2.45;;
73428;SDS011;61643;49.564;17.412;2023-02-18T06:35:24;5.53;;;2.40;;
73428;SDS011;61643;49.564;17.412;2023-02-18T06:37:50;4.60;;;2.60;;
73428;SDS011;61643;49.564;17.412;2023-02-18T06:40:16;5.90;;;2.53;;
73428;SDS011;61643;49.564;17.412;2023-02-18T06:42:43;3.78;;;2.50;;
73428;SDS011;61643;49.564;17.412;2023-02-18T06:45:09;4.18;;;2.25;;
73428;SDS011;61643;49.564;17.412;2023-02-18T06:47:35;4.07;;;2.60;;
73428;SDS011;61643;49.564;17.412;2023-02-18T06:50:01;5.00;;;2.45;;
73428;SDS011;61643;49.564;17.412;2023-02-18T06:52:27;5.43;;;2.30;;
73428;SDS011;61643;49.564;17.412;2023-02-18T06:54:55;7.30;;;2.35;;
73428;SDS011;61643;49.564;17.412;2023-02-18T06:57:21;6.78;;;2.63;;
73428;SDS011;61643;49.564;17.412;2023-02-18T06:59:47;8.48;;;2.97;;
73428;SDS011;61643;49.564;17.412;2023-02-18T07:02:13;3.83;;;2.50;;
73428;SDS011;61643;49.564;17.412;2023-02-18T07:04:39;4.68;;;2.58;;
73428;SDS011;61643;49.564;17.412;2023-02-18T07:07:04;4.80;;;2.83;;
73428;SDS011;61643;49.564;17.412;2023-02-18T07:09:31;6.18;;;2.80;;
73428;SDS011;61643;49.564;17.412;2023-02-18T07:11:57;4.93;;;2.70;;
73428;SDS011;61643;49.564;17.412;2023-02-18T07:14:23;7.03;;;3.00;;
73428;SDS011;61643;49.564;17.412;2023-02-18T07:16:49;6.78;;;3.40;;
73428;SDS011;61643;49.564;17.412;2023-02-18T07:19:15;14.85;;;5.15;;
73428;SDS011;61643;49.564;17.412;2023-02-18T07:21:42;17.95;;;6.72;;
73428;SDS011;61643;49.564;17.412;2023-02-18T07:24:08;19.10;;;7.35;;
73428;SDS011;61643;49.564;17.412;2023-02-18T07:26:34;22.13;;;10.10;;
73428;SDS011;61643;49.564;17.412;2023-02-18T07:28:59;22.15;;;10.88;;
73428;SDS011;61643;49.564;17.412;2023-02-18T07:31:26;13.38;;;5.80;;
73428;SDS011;61643;49.564;17.412;2023-02-18T07:33:52;9.75;;;5.95;;
73428;SDS011;61643;49.564;17.412;2023-02-18T07:36:18;13.93;;;7.65;;
73428;SDS011;61643;49.564;17.412;2023-02-18T07:38:44;8.18;;;5.45;;
73428;SDS011;61643;49.564;17.412;2023-02-18T07:41:17;6.32;;;3.67;;
73428;SDS011;61643;49.564;17.412;2023-02-18T07:43:45;7.63;;;4.07;;
73428;SDS011;61643;49.564;17.412;2023-02-18T07:46:11;9.02;;;5.15;;
73428;SDS011;61643;49.564;17.412;2023-02-18T07:48:37;10.52;;;5.30;;
73428;SDS011;61643;49.564;17.412;2023-02-18T07:51:07;7.90;;;4.50;;
73428;SDS011;61643;49.564;17.412;2023-02-18T07:53:34;7.15;;;3.80;;
73428;SDS011;61643;49.564;17.412;2023-02-18T07:56:00;7.50;;;3.88;;
73428;SDS011;61643;49.564;17.412;2023-02-18T07:58:27;7.72;;;3.47;;
73428;SDS011;61643;49.564;17.412;2023-02-18T08:00:56;6.25;;;3.75;;
73428;SDS011;61643;49.564;17.412;2023-02-18T08:03:23;6.38;;;3.40;;
73428;SDS011;61643;49.564;17.412;2023-02-18T08:05:51;8.30;;;3.22;;
73428;SDS011;61643;49.564;17.412;2023-02-18T08:08:22;7.85;;;3.53;;
73428;SDS011;61643;49.564;17.412;2023-02-18T08:10:50;10.25;;;5.30;;
73428;SDS011;61643;49.564;17.412;2023-02-18T08:13:17;18.42;;;7.68;;
73428;SDS011;61643;49.564;17.412;2023-02-18T08:15:43;6.50;;;3.10;;
73428;SDS011;61643;49.564;17.412;2023-02-18T08:18:27;8.13;;;4.30;;
73428;SDS011;61643;49.564;17.412;2023-02-18T08:20:53;5.90;;;3.03;;
73428;SDS011;61643;49.564;17.412;2023-02-18T08:23:20;6.10;;;3.00;;
73428;SDS011;61643;49.564;17.412;2023-02-18T08:25:47;8.77;;;3.40;;
73428;SDS011;61643;49.564;17.412;2023-02-18T08:28:15;6.25;;;2.97;;
73428;SDS011;61643;49.564;17.412;2023-02-18T08:30:45;5.55;;;3.33;;
73428;SDS011;61643;49.564;17.412;2023-02-18T08:33:13;6.57;;;3.03;;
73428;SDS011;61643;49.564;17.412;2023-02-18T08:35:40;6.60;;;4.18;;
73428;SDS011;61643;49.564;17.412;2023-02-18T08:38:06;5.60;;;3.72;;
73428;SDS011;61643;49.564;17.412;2023-02-18T08:40:32;7.70;;;3.90;;
73428;SDS011;61643;49.564;17.412;2023-02-18T08:42:58;7.53;;;3.70;;
73428;SDS011;61643;49.564;17.412;2023-02-18T08:45:24;7.05;;;3.60;;
73428;SDS011;61643;49.564;17.412;2023-02-18T08:47:50;7.47;;;4.72;;
73428;SDS011;61643;49.564;17.412;2023-02-18T08:50:16;6.22;;;3.42;;
73428;SDS011;61643;49.564;17.412;2023-02-18T08:52:43;8.10;;;3.75;;
73428;SDS011;61643;49.564;17.412;2023-02-18T08:55:09;8.35;;;4.60;;
73428;SDS011;61643;49.564;17.412;2023-02-18T08:57:35;9.25;;;4.18;;
73428;SDS011;61643;49.564;17.412;2023-02-18T09:00:01;8.68;;;4.22;;
73428;SDS011;61643;49.564;17.412;2023-02-18T09:02:27;9.80;;;3.90;;
73428;SDS011;61643;49.564;17.412;2023-02-18T09:04:53;10.75;;;4.63;;
73428;SDS011;61643;49.564;17.412;2023-02-18T09:07:19;10.80;;;6.65;;
73428;SDS011;61643;49.564;17.412;2023-02-18T09:09:45;10.63;;;5.25;;
73428;SDS011;61643;49.564;17.412;2023-02-18T09:12:11;7.55;;;4.00;;
73428;SDS011;61643;49.564;17.412;2023-02-18T09:14:37;9.10;;;4.00;;
73428;SDS011;61643;49.564;17.412;2023-02-18T09:17:03;10.38;;;5.28;;
73428;SDS011;61643;49.564;17.412;2023-02-18T09:19:29;8.68;;;4.97;;
73428;SDS011;61643;49.564;17.412;2023-02-18T09:21:55;10.63;;;5.20;;
73428;SDS011;61643;49.564;17.412;2023-02-18T09:24:22;11.25;;;4.30;;
73428;SDS011;61643;49.564;17.412;2023-02-18T09:26:49;7.78;;;4.07;;
73428;SDS011;61643;49.564;17.412;2023-02-18T09:29:16;11.82;;;5.68;;
73428;SDS011;61643;49.564;17.412;2023-02-18T09:31:44;13.18;;;7.70;;
73428;SDS011;61643;49.564;17.412;2023-02-18T09:34:10;19.38;;;10.15;;
73428;SDS011;61643;49.564;17.412;2023-02-18T09:36:37;17.05;;;8.65;;
73428;SDS011;61643;49.564;17.412;2023-02-18T09:39:06;9.40;;;5.78;;
73428;SDS011;61643;49.564;17.412;2023-02-18T09:41:43;12.45;;;7.03;;
73428;SDS011;61643;49.564;17.412;2023-02-18T09:44:24;9.82;;;5.93;;
73428;SDS011;61643;49.564;17.412;2023-02-18T09:46:59;10.73;;;5.05;;
73428;SDS011;61643;49.564;17.412;2023-02-18T09:49:48;6.30;;;4.00;;
73428;SDS011;61643;49.564;17.412;2023-02-18T09:52:21;6.95;;;3.95;;
73428;SDS011;61643;49.564;17.412;2023-02-18T09:54:50;9.48;;;4.25;;
73428;SDS011;61643;49.564;17.412;2023-02-18T09:57:27;7.70;;;3.90;;
73428;SDS011;61643;49.564;17.412;2023-02-18T10:00:09;7.35;;;4.25;;
73428;SDS011;61643;49.564;17.412;2023-02-18T10:02:40;8.07;;;4.13;;
73428;SDS011;61643;49.564;17.412;2023-02-18T10:05:14;8.52;;;4.65;;
73428;SDS011;61643;49.564;17.412;2023-02-18T10:07:41;9.27;;;4.50;;
73428;SDS011;61643;49.564;17.412;2023-02-18T10:10:17;11.52;;;5.47;;
73428;SDS011;61643;49.564;17.412;2023-02-18T10:13:03;8.43;;;4.53;;
73428;SDS011;61643;49.564;17.412;2023-02-18T10:15:37;9.55;;;4.95;;
73428;SDS011;61643;49.564;17.412;2023-02-18T10:18:18;9.15;;;4.85;;
73428;SDS011;61643;49.564;17.412;2023-02-18T10:20:49;14.80;;;5.82;;
73428;SDS011;61643;49.564;17.412;2023-02-18T10:23:18;27.40;;;9.70;;
73428;SDS011;61643;49.564;17.412;2023-02-18T10:25:45;129.57;;;38.90;;
73428;SDS011;61643;49.564;17.412;2023-02-18T10:28:13;110.82;;;38.17;;
73428;SDS011;61643;49.564;17.412;2023-02-18T10:30:42;65.72;;;22.80;;
73428;SDS011;61643;49.564;17.412;2023-02-18T10:36:00;11.93;;;6.07;;
73428;SDS011;61643;49.564;17.412;2023-02-18T10:51:16;42.25;;;19.08;;
73428;SDS011;61643;49.564;17.412;2023-02-18T10:53:47;24.35;;;10.30;;
73428;SDS011;61643;49.564;17.412;2023-02-18T10:56:35;13.70;;;6.55;;
73428;SDS011;61643;49.564;17.412;2023-02-18T10:59:23;11.48;;;5.82;;
73428;SDS011;61643;49.564;17.412;2023-02-18T11:01:55;12.98;;;7.13;;
73428;SDS011;61643;49.564;17.412;2023-02-18T11:04:34;14.45;;;7.32;;
73428;SDS011;61643;49.564;17.412;2023-02-18T11:09:47;13.43;;;7.15;;
73428;SDS011;61643;49.564;17.412;2023-02-18T11:12:22;12.30;;;7.40;;
73428;SDS011;61643;49.564;17.412;2023-02-18T11:15:36;15.95;;;8.40;;
73428;SDS011;61643;49.564;17.412;2023-02-18T11:17:42;16.00;;;8.50;;
73428;SDS011;61643;49.564;17.412;2023-02-18T11:20:20;17.83;;;10.05;;
73428;SDS011;61643;49.564;17.412;2023-02-18T11:25:36;12.73;;;7.55;;
73428;SDS011;61643;49.564;17.412;2023-02-18T11:28:06;11.98;;;5.95;;
73428;SDS011;61643;49.564;17.412;2023-02-18T11:30:47;10.27;;;5.78;;
73428;SDS011;61643;49.564;17.412;2023-02-18T11:35:53;16.08;;;8.23;;
73428;SDS011;61643;49.564;17.412;2023-02-18T11:38:22;15.23;;;8.88;;
73428;SDS011;61643;49.564;17.412;2023-02-18T11:41:14;17.58;;;9.90;;
73428;SDS011;61643;49.564;17.412;2023-02-18T11:43:47;21.50;;;10.75;;
73428;SDS011;61643;49.564;17.412;2023-02-18T11:46:17;20.10;;;10.73;;
73428;SDS011;61643;49.564;17.412;2023-02-18T11:48:45;33.28;;;16.10;;
73428;SDS011;61643;49.564;17.412;2023-02-18T11:56:25;15.00;;;8.45;;
73428;SDS011;61643;49.564;17.412;2023-02-18T11:58:52;13.75;;;6.88;;
73428;SDS011;61643;49.564;17.412;2023-02-18T12:01:30;13.98;;;7.75;;
73428;SDS011;61643;49.564;17.412;2023-02-18T12:06:54;15.57;;;7.72;;
73428;SDS011;61643;49.564;17.412;2023-02-18T12:09:30;11.95;;;6.75;;
73428;SDS011;61643;49.564;17.412;2023-02-18T12:12:10;14.57;;;7.13;;
73428;SDS011;61643;49.564;17.412;2023-02-18T12:14:41;17.40;;;8.98;;
73428;SDS011;61643;49.564;17.412;2023-02-18T12:31:39;19.05;;;10.43;;
73428;SDS011;61643;49.564;17.412;2023-02-18T12:47:52;28.48;;;13.57;;
73428;SDS011;61643;49.564;17.412;2023-02-18T12:51:03;22.25;;;11.52;;
73428;SDS011;61643;49.564;17.412;2023-02-18T13:04:58;11.25;;;6.22;;
73428;SDS011;61643;49.564;17.412;2023-02-18T13:07:36;10.98;;;5.93;;
73428;SDS011;61643;49.564;17.412;2023-02-18T13:17:59;5.30;;;3.40;;
73428;SDS011;61643;49.564;17.412;2023-02-18T13:20:36;6.80;;;2.83;;
73428;SDS011;61643;49.564;17.412;2023-02-18T13:23:07;5.43;;;3.33;;
73428;SDS011;61643;49.564;17.412;2023-02-18T13:25:42;3.72;;;2.60;;
73428;SDS011;61643;49.564;17.412;2023-02-18T13:28:16;4.93;;;3.03;;
73428;SDS011;61643;49.564;17.412;2023-02-18T13:31:11;4.75;;;3.15;;
73428;SDS011;61643;49.564;17.412;2023-02-18T13:33:59;4.70;;;2.72;;
73428;SDS011;61643;49.564;17.412;2023-02-18T13:36:43;3.60;;;2.75;;
73428;SDS011;61643;49.564;17.412;2023-02-18T13:39:13;3.35;;;2.55;;
73428;SDS011;61643;49.564;17.412;2023-02-18T13:41:45;3.55;;;2.45;;
73428;SDS011;61643;49.564;17.412;2023-02-18T13:46:52;3.00;;;2.22;;
73428;SDS011;61643;49.564;17.412;2023-02-18T13:49:25;2.97;;;2.33;;
73428;SDS011;61643;49.564;17.412;2023-02-18T13:51:57;3.45;;;2.50;;
73428;SDS011;61643;49.564;17.412;2023-02-18T13:59:46;2.83;;;2.22;;
73428;SDS011;61643;49.564;17.412;2023-02-18T14:07:27;3.42;;;2.28;;
73428;SDS011;61643;49.564;17.412;2023-02-18T14:26:00;2.95;;;2.20;;
73428;SDS011;61643;49.564;17.412;2023-02-18T14:31:01;2.00;;;1.67;;
73428;SDS011;61643;49.564;17.412;2023-02-18T14:33:30;3.60;;;2.30;;
73428;SDS011;61643;49.564;17.412;2023-02-18T14:41:48;2.53;;;2.15;;
73428;SDS011;61643;49.564;17.412;2023-02-18T14:46:55;3.85;;;2.47;;
73428;SDS011;61643;49.564;17.412;2023-02-18T14:49:44;3.38;;;2.30;;
73428;SDS011;61643;49.564;17.412;2023-02-18T14:55:24;4.70;;;3.30;;
73428;SDS011;61643;49.564;17.412;2023-02-18T14:57:59;5.70;;;3.22;;
73428;SDS011;61643;49.564;17.412;2023-02-18T15:00:29;4.60;;;2.85;;
73428;SDS011;61643;49.564;17.412;2023-02-18T15:03:03;3.80;;;2.40;;
73428;SDS011;61643;49.564;17.412;2023-02-18T15:05:37;3.50;;;2.53;;
73428;SDS011;61643;49.564;17.412;2023-02-18T15:08:05;3.33;;;2.60;;
73428;SDS011;61643;49.564;17.412;2023-02-18T15:10:38;3.92;;;2.72;;
73428;SDS011;61643;49.564;17.412;2023-02-18T15:15:52;3.30;;;2.53;;
73428;SDS011;61643;49.564;17.412;2023-02-18T15:18:33;4.15;;;2.40;;
73428;SDS011;61643;49.564;17.412;2023-02-18T15:21:08;3.70;;;2.38;;
73428;SDS011;61643;49.564;17.412;2023-02-18T15:23:42;4.75;;;2.50;;
73428;SDS011;61643;49.564;17.412;2023-02-18T15:26:11;3.10;;;2.40;;
73428;SDS011;61643;49.564;17.412;2023-02-18T15:28:58;6.40;;;2.42;;
73428;SDS011;61643;49.564;17.412;2023-02-18T15:31:35;5.35;;;2.85;;
73428;SDS011;61643;49.564;17.412;2023-02-18T15:34:15;3.25;;;2.58;;
73428;SDS011;61643;49.564;17.412;2023-02-18T15:36:51;2.67;;;2.22;;
73428;SDS011;61643;49.564;17.412;2023-02-18T15:39:17;4.78;;;2.50;;
73428;SDS011;61643;49.564;17.412;2023-02-18T15:41:43;4.30;;;2.50;;
73428;SDS011;61643;49.564;17.412;2023-02-18T15:44:24;4.50;;;2.45;;
73428;SDS011;61643;49.564;17.412;2023-02-18T15:46:53;3.33;;;2.50;;
73428;SDS011;61643;49.564;17.412;2023-02-18T15:49:20;4.90;;;2.28;;
73428;SDS011;61643;49.564;17.412;2023-02-18T15:51:48;3.70;;;2.50;;
73428;SDS011;61643;49.564;17.412;2023-02-18T15:54:16;3.00;;;2.58;;
73428;SDS011;61643;49.564;17.412;2023-02-18T15:56:45;4.50;;;2.58;;
73428;SDS011;61643;49.564;17.412;2023-02-18T16:01:48;3.58;;;2.60;;
73428;SDS011;61643;49.564;17.412;2023-02-18T16:04:15;9.50;;;4.97;;
73428;SDS011;61643;49.564;17.412;2023-02-18T16:06:45;10.95;;;4.55;;
73428;SDS011;61643;49.564;17.412;2023-02-18T16:09:28;10.52;;;5.15;;
73428;SDS011;61643;49.564;17.412;2023-02-18T16:11:57;8.40;;;4.18;;
73428;SDS011;61643;49.564;17.412;2023-02-18T16:14:28;9.55;;;4.00;;
73428;SDS011;61643;49.564;17.412;2023-02-18T16:22:45;10.00;;;4.47;;
73428;SDS011;61643;49.564;17.412;2023-02-18T16:27:45;10.35;;;4.90;;
73428;SDS011;61643;49.564;17.412;2023-02-18T16:30:15;7.80;;;4.85;;
73428;SDS011;61643;49.564;17.412;2023-02-18T16:32:47;6.35;;;3.83;;
73428;SDS011;61643;49.564;17.412;2023-02-18T16:35:13;9.07;;;5.43;;
73428;SDS011;61643;49.564;17.412;2023-02-18T16:37:40;5.85;;;3.63;;
73428;SDS011;61643;49.564;17.412;2023-02-18T16:42:56;4.90;;;3.60;;
73428;SDS011;61643;49.564;17.412;2023-02-18T16:45:31;3.97;;;2.80;;
73428;SDS011;61643;49.564;17.412;2023-02-18T16:47:57;6.28;;;4.00;;
73428;SDS011;61643;49.564;17.412;2023-02-18T16:50:24;5.30;;;3.90;;
73428;SDS011;61643;49.564;17.412;2023-02-18T16:52:52;7.38;;;6.28;;
73428;SDS011;61643;49.564;17.412;2023-02-18T16:55:19;3.42;;;2.65;;
73428;SDS011;61643;49.564;17.412;2023-02-18T16:57:47;3.63;;;2.75;;
73428;SDS011;61643;49.564;17.412;2023-02-18T17:00:14;4.38;;;2.60;;
73428;SDS011;61643;49.564;17.412;2023-02-18T17:02:45;4.00;;;2.92;;
73428;SDS011;61643;49.564;17.412;2023-02-18T17:05:24;4.50;;;3.25;;
73428;SDS011;61643;49.564;17.412;2023-02-18T17:07:58;5.95;;;3.30;;
73428;SDS011;61643;49.564;17.412;2023-02-18T17:10:38;5.70;;;3.65;;
73428;SDS011;61643;49.564;17.412;2023-02-18T17:13:04;3.38;;;2.58;;
73428;SDS011;61643;49.564;17.412;2023-02-18T17:15:32;4.25;;;3.00;;
73428;SDS011;61643;49.564;17.412;2023-02-18T17:17:59;5.10;;;3.53;;
73428;SDS011;61643;49.564;17.412;2023-02-18T17:20:27;5.38;;;2.78;;
73428;SDS011;61643;49.564;17.412;2023-02-18T17:22:54;4.45;;;2.63;;
73428;SDS011;61643;49.564;17.412;2023-02-18T17:25:27;4.55;;;2.90;;
73428;SDS011;61643;49.564;17.412;2023-02-18T17:27:56;4.22;;;3.00;;
73428;SDS011;61643;49.564;17.412;2023-02-18T17:30:22;3.53;;;2.60;;
73428;SDS011;61643;49.564;17.412;2023-02-18T17:32:48;4.32;;;2.60;;
73428;SDS011;61643;49.564;17.412;2023-02-18T17:35:15;4.38;;;3.70;;
73428;SDS011;61643;49.564;17.412;2023-02-18T17:37:46;3.85;;;2.83;;
73428;SDS011;61643;49.564;17.412;2023-02-18T17:40:21;4.78;;;3.05;;
73428;SDS011;61643;49.564;17.412;2023-02-18T17:42:49;5.20;;;3.15;;
73428;SDS011;61643;49.564;17.412;2023-02-18T17:45:28;6.15;;;3.20;;
73428;SDS011;61643;49.564;17.412;2023-02-18T17:47:59;34.75;;;13.60;;
73428;SDS011;61643;49.564;17.412;2023-02-18T17:50:27;6.43;;;4.03;;
73428;SDS011;61643;49.564;17.412;2023-02-18T17:52:54;4.65;;;3.53;;